sensor_id;sensor_type;location;lat;lon;timestamp;P1;durP1;ratioP1;P2;durP2;ratioP2
4214;SDS011;2121;48.062;7.850;2022-10-19T00:01:51;10.30;;;5.77;;
4214;SDS011;2121;48.062;7.850;2022-10-19T00:04:17;10.60;;;5.30;;
4214;SDS011;2121;48.062;7.850;2022-10-19T00:06:43;11.13;;;6.13;;
4214;SDS011;2121;48.062;7.850;2022-10-19T00:09:15;8.47;;;5.57;;
4214;SDS011;2121;48.062;7.850;2022-10-19T00:11:44;8.23;;;5.17;;
4214;SDS011;2121;48.062;7.850;2022-10-19T00:14:14;8.60;;;5.73;;
4214;SDS011;2121;48.062;7.850;2022-10-19T00:16:44;7.67;;;5.80;;
4214;SDS011;2121;48.062;7.850;2022-10-19T00:19:13;14.80;;;5.67;;
4214;SDS011;2121;48.062;7.850;2022-10-19T00:21:43;14.60;;;5.27;;
4214;SDS011;2121;48.062;7.850;2022-10-19T00:24:09;12.23;;;5.20;;
4214;SDS011;2121;48.062;7.850;2022-10-19T00:26:35;7.67;;;5.50;;
4214;SDS011;2121;48.062;7.850;2022-10-19T00:29:01;5.40;;;4.50;;
4214;SDS011;2121;48.062;7.850;2022-10-19T00:31:28;11.73;;;7.53;;
4214;SDS011;2121;48.062;7.850;2022-10-19T00:33:55;10.03;;;6.43;;
4214;SDS011;2121;48.062;7.850;2022-10-19T00:36:26;9.27;;;6.40;;
4214;SDS011;2121;48.062;7.850;2022-10-19T00:38:56;9.00;;;5.40;;
4214;SDS011;2121;48.062;7.850;2022-10-19T00:41:23;7.90;;;5.00;;
4214;SDS011;2121;48.062;7.850;2022-10-19T00:46:34;8.20;;;5.60;;
4214;SDS011;2121;48.062;7.850;2022-10-19T00:49:17;7.00;;;5.73;;
4214;SDS011;2121;48.062;7.850;2022-10-19T00:51:50;5.60;;;4.87;;
4214;SDS011;2121;48.062;7.850;2022-10-19T00:54:24;6.57;;;5.50;;
4214;SDS011;2121;48.062;7.850;2022-10-19T00:56:51;9.90;;;5.90;;
4214;SDS011;2121;48.062;7.850;2022-10-19T00:59:20;12.97;;;5.30;;
4214;SDS011;2121;48.062;7.850;2022-10-19T01:01:48;6.70;;;4.80;;
4214;SDS011;2121;48.062;7.850;2022-10-19T01:04:16;4.40;;;4.00;;
4214;SDS011;2121;48.062;7.850;2022-10-19T01:06:44;7.37;;;4.53;;
4214;SDS011;2121;48.062;7.850;2022-10-19T01:09:10;6.77;;;4.83;;
4214;SDS011;2121;48.062;7.850;2022-10-19T01:20:22;11.03;;;4.63;;
4214;SDS011;2121;48.062;7.850;2022-10-19T01:29:49;6.20;;;4.93;;
4214;SDS011;2121;48.062;7.850;2022-10-19T01:46:52;11.20;;;5.50;;
4214;SDS011;2121;48.062;7.850;2022-10-19T01:49:28;10.93;;;5.30;;
4214;SDS011;2121;48.062;7.850;2022-10-19T01:52:04;17.73;;;7.53;;
4214;SDS011;2121;48.062;7.850;2022-10-19T01:54:35;26.83;;;7.80;;
4214;SDS011;2121;48.062;7.850;2022-10-19T01:57:10;38.93;;;11.27;;
4214;SDS011;2121;48.062;7.850;2022-10-19T01:59:41;28.23;;;10.27;;
4214;SDS011;2121;48.062;7.850;2022-10-19T02:02:07;61.67;;;11.13;;
4214;SDS011;2121;48.062;7.850;2022-10-19T02:04:36;35.80;;;10.10;;
4214;SDS011;2121;48.062;7.850;2022-10-19T02:07:03;42.93;;;11.20;;
4214;SDS011;2121;48.062;7.850;2022-10-19T02:09:32;65.30;;;14.90;;
4214;SDS011;2121;48.062;7.850;2022-10-19T02:11:58;21.13;;;9.70;;
4214;SDS011;2121;48.062;7.850;2022-10-19T02:14:35;38.83;;;11.33;;
4214;SDS011;2121;48.062;7.850;2022-10-19T02:17:17;44.53;;;14.00;;
4214;SDS011;2121;48.062;7.850;2022-10-19T02:19:47;21.57;;;8.87;;
4214;SDS011;2121;48.062;7.850;2022-10-19T02:22:13;28.90;;;10.03;;
4214;SDS011;2121;48.062;7.850;2022-10-19T02:24:39;47.47;;;11.00;;
4214;SDS011;2121;48.062;7.850;2022-10-19T02:27:05;50.97;;;10.70;;
4214;SDS011;2121;48.062;7.850;2022-10-19T02:29:33;54.60;;;12.10;;
4214;SDS011;2121;48.062;7.850;2022-10-19T02:32:01;28.13;;;10.87;;
4214;SDS011;2121;48.062;7.850;2022-10-19T02:34:27;27.27;;;12.50;;
4214;SDS011;2121;48.062;7.850;2022-10-19T02:36:54;17.47;;;10.30;;
4214;SDS011;2121;48.062;7.850;2022-10-19T02:39:19;12.93;;;9.53;;
4214;SDS011;2121;48.062;7.850;2022-10-19T02:41:53;14.90;;;8.67;;
4214;SDS011;2121;48.062;7.850;2022-10-19T02:44:25;19.27;;;9.77;;
4214;SDS011;2121;48.062;7.850;2022-10-19T02:47:00;17.67;;;8.10;;
4214;SDS011;2121;48.062;7.850;2022-10-19T02:50:05;23.93;;;9.53;;
4214;SDS011;2121;48.062;7.850;2022-10-19T02:52:33;25.67;;;9.10;;
4214;SDS011;2121;48.062;7.850;2022-10-19T02:55:02;48.50;;;12.37;;
4214;SDS011;2121;48.062;7.850;2022-10-19T02:57:29;32.03;;;11.90;;
4214;SDS011;2121;48.062;7.850;2022-10-19T02:59:56;37.30;;;14.60;;
4214;SDS011;2121;48.062;7.850;2022-10-19T03:02:22;25.60;;;12.60;;
4214;SDS011;2121;48.062;7.850;2022-10-19T03:04:48;20.40;;;10.23;;
4214;SDS011;2121;48.062;7.850;2022-10-19T03:07:15;20.77;;;11.70;;
4214;SDS011;2121;48.062;7.850;2022-10-19T03:09:42;83.77;;;18.17;;
4214;SDS011;2121;48.062;7.850;2022-10-19T03:12:10;32.53;;;15.87;;
4214;SDS011;2121;48.062;7.850;2022-10-19T03:14:37;32.30;;;13.90;;
4214;SDS011;2121;48.062;7.850;2022-10-19T03:17:03;28.87;;;13.50;;
4214;SDS011;2121;48.062;7.850;2022-10-19T03:19:29;47.40;;;14.67;;
4214;SDS011;2121;48.062;7.850;2022-10-19T03:21:56;43.13;;;14.50;;
4214;SDS011;2121;48.062;7.850;2022-10-19T03:24:22;27.70;;;11.43;;
4214;SDS011;2121;48.062;7.850;2022-10-19T03:26:48;52.83;;;13.73;;
4214;SDS011;2121;48.062;7.850;2022-10-19T03:29:13;29.57;;;11.00;;
4214;SDS011;2121;48.062;7.850;2022-10-19T03:31:39;37.50;;;10.87;;
4214;SDS011;2121;48.062;7.850;2022-10-19T03:34:05;36.53;;;8.73;;
4214;SDS011;2121;48.062;7.850;2022-10-19T03:36:31;42.23;;;11.13;;
4214;SDS011;2121;48.062;7.850;2022-10-19T03:39:03;16.70;;;9.57;;
4214;SDS011;2121;48.062;7.850;2022-10-19T03:41:35;11.60;;;8.30;;
4214;SDS011;2121;48.062;7.850;2022-10-19T03:44:01;35.87;;;11.50;;
4214;SDS011;2121;48.062;7.850;2022-10-19T03:46:28;42.53;;;9.90;;
4214;SDS011;2121;48.062;7.850;2022-10-19T03:48:53;23.87;;;11.30;;
4214;SDS011;2121;48.062;7.850;2022-10-19T03:51:20;27.67;;;10.93;;
4214;SDS011;2121;48.062;7.850;2022-10-19T03:53:56;23.73;;;9.47;;
4214;SDS011;2121;48.062;7.850;2022-10-19T03:56:25;24.90;;;10.73;;
4214;SDS011;2121;48.062;7.850;2022-10-19T03:58:54;12.67;;;8.17;;
4214;SDS011;2121;48.062;7.850;2022-10-19T04:01:22;12.73;;;7.77;;
4214;SDS011;2121;48.062;7.850;2022-10-19T04:03:55;44.40;;;11.93;;
4214;SDS011;2121;48.062;7.850;2022-10-19T04:06:28;22.00;;;11.03;;
4214;SDS011;2121;48.062;7.850;2022-10-19T04:09:02;22.20;;;9.50;;
4214;SDS011;2121;48.062;7.850;2022-10-19T04:11:30;29.83;;;9.70;;
4214;SDS011;2121;48.062;7.850;2022-10-19T04:13:58;25.10;;;11.37;;
4214;SDS011;2121;48.062;7.850;2022-10-19T04:16:25;19.70;;;9.13;;
4214;SDS011;2121;48.062;7.850;2022-10-19T04:18:53;14.90;;;9.90;;
4214;SDS011;2121;48.062;7.850;2022-10-19T04:21:23;20.03;;;10.00;;
4214;SDS011;2121;48.062;7.850;2022-10-19T04:23:57;15.90;;;9.03;;
4214;SDS011;2121;48.062;7.850;2022-10-19T04:26:30;22.77;;;9.43;;
4214;SDS011;2121;48.062;7.850;2022-10-19T04:28:58;19.90;;;9.27;;
4214;SDS011;2121;48.062;7.850;2022-10-19T04:31:25;31.33;;;9.63;;
4214;SDS011;2121;48.062;7.850;2022-10-19T04:33:52;62.77;;;11.70;;
4214;SDS011;2121;48.062;7.850;2022-10-19T04:36:19;20.30;;;9.80;;
4214;SDS011;2121;48.062;7.850;2022-10-19T04:38:45;12.77;;;10.17;;
4214;SDS011;2121;48.062;7.850;2022-10-19T04:41:12;24.03;;;10.30;;
4214;SDS011;2121;48.062;7.850;2022-10-19T04:43:40;14.17;;;9.30;;
4214;SDS011;2121;48.062;7.850;2022-10-19T04:46:10;20.20;;;9.77;;
4214;SDS011;2121;48.062;7.850;2022-10-19T04:48:39;18.30;;;8.20;;
4214;SDS011;2121;48.062;7.850;2022-10-19T04:51:05;20.00;;;8.20;;
4214;SDS011;2121;48.062;7.850;2022-10-19T04:53:31;20.13;;;9.60;;
4214;SDS011;2121;48.062;7.850;2022-10-19T04:55:58;24.47;;;10.50;;
4214;SDS011;2121;48.062;7.850;2022-10-19T04:58:27;16.80;;;9.50;;
4214;SDS011;2121;48.062;7.850;2022-10-19T05:00:53;17.13;;;9.50;;
4214;SDS011;2121;48.062;7.850;2022-10-19T05:03:19;13.80;;;9.43;;
4214;SDS011;2121;48.062;7.850;2022-10-19T05:05:44;35.10;;;11.00;;
4214;SDS011;2121;48.062;7.850;2022-10-19T05:08:10;29.83;;;10.23;;
4214;SDS011;2121;48.062;7.850;2022-10-19T05:10:36;13.17;;;9.47;;
4214;SDS011;2121;48.062;7.850;2022-10-19T05:13:02;23.43;;;9.57;;
4214;SDS011;2121;48.062;7.850;2022-10-19T05:15:29;19.30;;;10.17;;
4214;SDS011;2121;48.062;7.850;2022-10-19T05:17:55;9.80;;;7.83;;
4214;SDS011;2121;48.062;7.850;2022-10-19T05:20:21;21.03;;;8.83;;
4214;SDS011;2121;48.062;7.850;2022-10-19T05:22:48;18.83;;;7.97;;
4214;SDS011;2121;48.062;7.850;2022-10-19T05:25:14;34.33;;;11.20;;
4214;SDS011;2121;48.062;7.850;2022-10-19T05:27:40;23.77;;;8.90;;
4214;SDS011;2121;48.062;7.850;2022-10-19T05:30:06;29.30;;;8.47;;
4214;SDS011;2121;48.062;7.850;2022-10-19T05:32:33;28.33;;;9.97;;
4214;SDS011;2121;48.062;7.850;2022-10-19T05:34:59;13.43;;;8.03;;
4214;SDS011;2121;48.062;7.850;2022-10-19T05:37:25;18.33;;;8.20;;
4214;SDS011;2121;48.062;7.850;2022-10-19T05:39:53;11.47;;;8.33;;
4214;SDS011;2121;48.062;7.850;2022-10-19T05:42:18;13.30;;;8.47;;
4214;SDS011;2121;48.062;7.850;2022-10-19T05:44:44;23.33;;;10.10;;
4214;SDS011;2121;48.062;7.850;2022-10-19T05:47:10;12.33;;;7.83;;
4214;SDS011;2121;48.062;7.850;2022-10-19T05:49:36;19.80;;;9.00;;
4214;SDS011;2121;48.062;7.850;2022-10-19T05:52:02;16.53;;;8.57;;
4214;SDS011;2121;48.062;7.850;2022-10-19T05:54:28;13.23;;;9.07;;
4214;SDS011;2121;48.062;7.850;2022-10-19T05:56:54;24.70;;;9.33;;
4214;SDS011;2121;48.062;7.850;2022-10-19T05:59:20;14.47;;;8.87;;
4214;SDS011;2121;48.062;7.850;2022-10-19T06:01:47;19.60;;;9.53;;
4214;SDS011;2121;48.062;7.850;2022-10-19T06:04:13;26.70;;;9.97;;
4214;SDS011;2121;48.062;7.850;2022-10-19T06:06:39;14.20;;;8.83;;
4214;SDS011;2121;48.062;7.850;2022-10-19T06:09:07;17.53;;;8.50;;
4214;SDS011;2121;48.062;7.850;2022-10-19T06:11:33;11.90;;;8.87;;
4214;SDS011;2121;48.062;7.850;2022-10-19T06:14:04;29.40;;;10.03;;
4214;SDS011;2121;48.062;7.850;2022-10-19T06:16:34;24.37;;;9.83;;
4214;SDS011;2121;48.062;7.850;2022-10-19T06:19:00;9.97;;;7.20;;
4214;SDS011;2121;48.062;7.850;2022-10-19T06:21:28;17.33;;;8.43;;
4214;SDS011;2121;48.062;7.850;2022-10-19T06:23:56;25.77;;;9.10;;
4214;SDS011;2121;48.062;7.850;2022-10-19T06:26:28;15.00;;;7.07;;
4214;SDS011;2121;48.062;7.850;2022-10-19T06:28:56;11.90;;;7.80;;
4214;SDS011;2121;48.062;7.850;2022-10-19T06:31:25;13.87;;;8.20;;
4214;SDS011;2121;48.062;7.850;2022-10-19T06:33:55;8.87;;;7.47;;
4214;SDS011;2121;48.062;7.850;2022-10-19T06:36:21;12.13;;;7.90;;
4214;SDS011;2121;48.062;7.850;2022-10-19T06:38:50;18.90;;;8.10;;
4214;SDS011;2121;48.062;7.850;2022-10-19T06:41:17;10.23;;;8.10;;
4214;SDS011;2121;48.062;7.850;2022-10-19T06:43:47;12.40;;;8.33;;
4214;SDS011;2121;48.062;7.850;2022-10-19T06:46:15;16.13;;;7.77;;
4214;SDS011;2121;48.062;7.850;2022-10-19T06:48:54;9.53;;;8.13;;
4214;SDS011;2121;48.062;7.850;2022-10-19T06:51:23;13.80;;;8.90;;
4214;SDS011;2121;48.062;7.850;2022-10-19T06:53:50;11.77;;;9.07;;
4214;SDS011;2121;48.062;7.850;2022-10-19T06:56:17;9.90;;;7.30;;
4214;SDS011;2121;48.062;7.850;2022-10-19T06:58:43;9.10;;;7.60;;
4214;SDS011;2121;48.062;7.850;2022-10-19T07:01:10;9.77;;;7.57;;
4214;SDS011;2121;48.062;7.850;2022-10-19T07:03:38;11.90;;;7.57;;
4214;SDS011;2121;48.062;7.850;2022-10-19T07:06:05;12.87;;;8.80;;
4214;SDS011;2121;48.062;7.850;2022-10-19T07:08:35;10.37;;;8.40;;
4214;SDS011;2121;48.062;7.850;2022-10-19T07:11:03;12.03;;;7.83;;
4214;SDS011;2121;48.062;7.850;2022-10-19T07:13:32;9.73;;;7.30;;
4214;SDS011;2121;48.062;7.850;2022-10-19T07:16:00;11.10;;;7.93;;
4214;SDS011;2121;48.062;7.850;2022-10-19T07:18:35;10.90;;;7.10;;
4214;SDS011;2121;48.062;7.850;2022-10-19T07:21:04;9.67;;;7.50;;
4214;SDS011;2121;48.062;7.850;2022-10-19T07:23:34;9.53;;;7.83;;
4214;SDS011;2121;48.062;7.850;2022-10-19T07:26:05;10.23;;;7.37;;
4214;SDS011;2121;48.062;7.850;2022-10-19T07:28:36;9.17;;;8.10;;
4214;SDS011;2121;48.062;7.850;2022-10-19T07:31:07;7.50;;;6.67;;
4214;SDS011;2121;48.062;7.850;2022-10-19T07:33:36;13.57;;;8.00;;
4214;SDS011;2121;48.062;7.850;2022-10-19T07:36:03;9.77;;;7.50;;
4214;SDS011;2121;48.062;7.850;2022-10-19T07:38:31;7.97;;;6.70;;
4214;SDS011;2121;48.062;7.850;2022-10-19T07:41:05;11.93;;;7.77;;
4214;SDS011;2121;48.062;7.850;2022-10-19T07:43:39;8.83;;;6.83;;
4214;SDS011;2121;48.062;7.850;2022-10-19T07:46:08;10.47;;;7.20;;
4214;SDS011;2121;48.062;7.850;2022-10-19T07:48:38;8.83;;;7.80;;
4214;SDS011;2121;48.062;7.850;2022-10-19T07:51:04;11.93;;;8.00;;
4214;SDS011;2121;48.062;7.850;2022-10-19T07:53:32;10.90;;;7.87;;
4214;SDS011;2121;48.062;7.850;2022-10-19T07:56:05;9.53;;;7.67;;
4214;SDS011;2121;48.062;7.850;2022-10-19T07:58:37;8.00;;;7.03;;
4214;SDS011;2121;48.062;7.850;2022-10-19T08:01:08;9.70;;;6.90;;
4214;SDS011;2121;48.062;7.850;2022-10-19T08:03:37;10.03;;;8.20;;
4214;SDS011;2121;48.062;7.850;2022-10-19T08:06:04;27.00;;;7.80;;
4214;SDS011;2121;48.062;7.850;2022-10-19T08:08:32;15.63;;;7.50;;
4214;SDS011;2121;48.062;7.850;2022-10-19T08:11:32;9.10;;;7.63;;
4214;SDS011;2121;48.062;7.850;2022-10-19T08:13:53;10.73;;;8.20;;
4214;SDS011;2121;48.062;7.850;2022-10-19T08:16:26;13.00;;;8.30;;
4214;SDS011;2121;48.062;7.850;2022-10-19T08:19:08;12.27;;;7.93;;
4214;SDS011;2121;48.062;7.850;2022-10-19T08:21:37;11.43;;;8.33;;
4214;SDS011;2121;48.062;7.850;2022-10-19T08:24:05;9.23;;;7.57;;
4214;SDS011;2121;48.062;7.850;2022-10-19T08:26:32;16.63;;;7.27;;
4214;SDS011;2121;48.062;7.850;2022-10-19T08:29:01;13.60;;;7.53;;
4214;SDS011;2121;48.062;7.850;2022-10-19T08:31:32;14.93;;;8.20;;
4214;SDS011;2121;48.062;7.850;2022-10-19T08:33:58;19.07;;;7.77;;
4214;SDS011;2121;48.062;7.850;2022-10-19T08:36:24;8.20;;;7.30;;
4214;SDS011;2121;48.062;7.850;2022-10-19T08:38:50;11.60;;;7.37;;
4214;SDS011;2121;48.062;7.850;2022-10-19T08:44:10;13.40;;;9.03;;
4214;SDS011;2121;48.062;7.850;2022-10-19T08:49:35;11.93;;;7.47;;
4214;SDS011;2121;48.062;7.850;2022-10-19T08:52:03;9.20;;;7.27;;
4214;SDS011;2121;48.062;7.850;2022-10-19T08:54:42;20.87;;;6.80;;
4214;SDS011;2121;48.062;7.850;2022-10-19T09:00:03;12.97;;;8.10;;
4214;SDS011;2121;48.062;7.850;2022-10-19T09:05:02;10.40;;;7.83;;
4214;SDS011;2121;48.062;7.850;2022-10-19T09:07:39;10.33;;;7.37;;
4214;SDS011;2121;48.062;7.850;2022-10-19T09:10:15;9.80;;;8.00;;
4214;SDS011;2121;48.062;7.850;2022-10-19T09:12:52;8.30;;;7.43;;
4214;SDS011;2121;48.062;7.850;2022-10-19T09:15:26;12.23;;;8.20;;
4214;SDS011;2121;48.062;7.850;2022-10-19T09:18:04;15.93;;;7.40;;
4214;SDS011;2121;48.062;7.850;2022-10-19T09:20:47;10.67;;;7.40;;
4214;SDS011;2121;48.062;7.850;2022-10-19T09:26:35;9.20;;;7.20;;
4214;SDS011;2121;48.062;7.850;2022-10-19T09:29:25;10.20;;;8.07;;
4214;SDS011;2121;48.062;7.850;2022-10-19T09:32:09;21.73;;;9.00;;
4214;SDS011;2121;48.062;7.850;2022-10-19T09:34:50;27.60;;;9.90;;
4214;SDS011;2121;48.062;7.850;2022-10-19T09:37:19;14.50;;;9.03;;
4214;SDS011;2121;48.062;7.850;2022-10-19T09:39:46;9.60;;;7.67;;
4214;SDS011;2121;48.062;7.850;2022-10-19T09:42:25;14.03;;;9.47;;
4214;SDS011;2121;48.062;7.850;2022-10-19T09:44:54;11.47;;;7.67;;
4214;SDS011;2121;48.062;7.850;2022-10-19T09:47:31;13.73;;;8.37;;
4214;SDS011;2121;48.062;7.850;2022-10-19T09:52:44;15.27;;;8.93;;
4214;SDS011;2121;48.062;7.850;2022-10-19T09:57:44;19.50;;;8.57;;
4214;SDS011;2121;48.062;7.850;2022-10-19T10:00:24;11.83;;;9.00;;
4214;SDS011;2121;48.062;7.850;2022-10-19T10:03:00;12.70;;;8.57;;
4214;SDS011;2121;48.062;7.850;2022-10-19T10:05:44;15.23;;;8.80;;
4214;SDS011;2121;48.062;7.850;2022-10-19T10:08:13;13.70;;;9.90;;
4214;SDS011;2121;48.062;7.850;2022-10-19T10:10:46;13.27;;;10.37;;
4214;SDS011;2121;48.062;7.850;2022-10-19T10:13:20;10.37;;;8.57;;
4214;SDS011;2121;48.062;7.850;2022-10-19T10:15:59;12.17;;;9.70;;
4214;SDS011;2121;48.062;7.850;2022-10-19T10:18:28;10.87;;;8.90;;
4214;SDS011;2121;48.062;7.850;2022-10-19T10:20:58;11.57;;;8.60;;
4214;SDS011;2121;48.062;7.850;2022-10-19T10:23:37;12.97;;;8.60;;
4214;SDS011;2121;48.062;7.850;2022-10-19T10:26:04;14.47;;;8.70;;
4214;SDS011;2121;48.062;7.850;2022-10-19T10:28:47;8.97;;;7.47;;
4214;SDS011;2121;48.062;7.850;2022-10-19T10:31:14;12.60;;;9.47;;
4214;SDS011;2121;48.062;7.850;2022-10-19T10:33:56;9.97;;;8.30;;
4214;SDS011;2121;48.062;7.850;2022-10-19T10:36:26;13.63;;;9.07;;
4214;SDS011;2121;48.062;7.850;2022-10-19T10:38:57;11.83;;;8.53;;
4214;SDS011;2121;48.062;7.850;2022-10-19T10:41:38;11.87;;;8.23;;
4214;SDS011;2121;48.062;7.850;2022-10-19T10:44:13;11.20;;;8.03;;
4214;SDS011;2121;48.062;7.850;2022-10-19T10:46:51;10.40;;;8.43;;
4214;SDS011;2121;48.062;7.850;2022-10-19T10:49:28;13.17;;;8.87;;
4214;SDS011;2121;48.062;7.850;2022-10-19T10:52:02;9.87;;;7.43;;
4214;SDS011;2121;48.062;7.850;2022-10-19T10:54:32;9.50;;;7.57;;
4214;SDS011;2121;48.062;7.850;2022-10-19T10:57:00;13.50;;;8.80;;
4214;SDS011;2121;48.062;7.850;2022-10-19T10:59:29;12.40;;;9.30;;
4214;SDS011;2121;48.062;7.850;2022-10-19T11:05:40;15.83;;;9.93;;
4214;SDS011;2121;48.062;7.850;2022-10-19T11:10:44;10.23;;;9.17;;
4214;SDS011;2121;48.062;7.850;2022-10-19T11:13:30;11.40;;;8.93;;
4214;SDS011;2121;48.062;7.850;2022-10-19T11:16:11;11.13;;;8.93;;
4214;SDS011;2121;48.062;7.850;2022-10-19T11:18:45;10.77;;;7.80;;
4214;SDS011;2121;48.062;7.850;2022-10-19T11:29:42;18.90;;;10.10;;
4214;SDS011;2121;48.062;7.850;2022-10-19T11:38:18;15.40;;;9.40;;
4214;SDS011;2121;48.062;7.850;2022-10-19T11:50:09;14.83;;;9.37;;
4214;SDS011;2121;48.062;7.850;2022-10-19T11:53:01;16.67;;;11.93;;
4214;SDS011;2121;48.062;7.850;2022-10-19T11:55:50;18.93;;;11.10;;
4214;SDS011;2121;48.062;7.850;2022-10-19T12:07:05;15.60;;;11.83;;
4214;SDS011;2121;48.062;7.850;2022-10-19T12:09:42;16.30;;;12.03;;
4214;SDS011;2121;48.062;7.850;2022-10-19T12:14:56;27.10;;;12.97;;
4214;SDS011;2121;48.062;7.850;2022-10-19T12:17:38;17.53;;;13.00;;
4214;SDS011;2121;48.062;7.850;2022-10-19T12:23:04;23.30;;;12.70;;
4214;SDS011;2121;48.062;7.850;2022-10-19T12:25:45;19.20;;;13.37;;
4214;SDS011;2121;48.062;7.850;2022-10-19T12:28:18;26.63;;;13.03;;
4214;SDS011;2121;48.062;7.850;2022-10-19T12:30:51;20.77;;;13.10;;
4214;SDS011;2121;48.062;7.850;2022-10-19T12:42:56;18.07;;;12.50;;
4214;SDS011;2121;48.062;7.850;2022-10-19T12:48:32;18.63;;;12.87;;
4214;SDS011;2121;48.062;7.850;2022-10-19T12:51:01;14.93;;;11.87;;
4214;SDS011;2121;48.062;7.850;2022-10-19T12:53:40;18.30;;;13.93;;
4214;SDS011;2121;48.062;7.850;2022-10-19T12:58:50;19.50;;;12.80;;
4214;SDS011;2121;48.062;7.850;2022-10-19T13:04:31;18.33;;;13.40;;
4214;SDS011;2121;48.062;7.850;2022-10-19T13:07:06;19.53;;;13.70;;
4214;SDS011;2121;48.062;7.850;2022-10-19T13:14:41;25.80;;;15.23;;
4214;SDS011;2121;48.062;7.850;2022-10-19T13:22:39;21.70;;;13.40;;
4214;SDS011;2121;48.062;7.850;2022-10-19T13:38:26;20.50;;;13.87;;
4214;SDS011;2121;48.062;7.850;2022-10-19T13:41:08;17.20;;;12.47;;
4214;SDS011;2121;48.062;7.850;2022-10-19T13:49:32;23.43;;;13.97;;
4214;SDS011;2121;48.062;7.850;2022-10-19T14:01:03;19.70;;;13.70;;
4214;SDS011;2121;48.062;7.850;2022-10-19T14:03:35;17.83;;;14.47;;
4214;SDS011;2121;48.062;7.850;2022-10-19T14:11:49;22.57;;;13.80;;
4214;SDS011;2121;48.062;7.850;2022-10-19T14:14:21;18.90;;;13.53;;
4214;SDS011;2121;48.062;7.850;2022-10-19T14:19:40;21.67;;;15.27;;
4214;SDS011;2121;48.062;7.850;2022-10-19T14:25:16;15.10;;;12.93;;
4214;SDS011;2121;48.062;7.850;2022-10-19T14:27:46;21.37;;;11.60;;
4214;SDS011;2121;48.062;7.850;2022-10-19T14:30:21;21.07;;;14.13;;
4214;SDS011;2121;48.062;7.850;2022-10-19T14:32:50;24.83;;;12.90;;
4214;SDS011;2121;48.062;7.850;2022-10-19T14:35:19;18.40;;;13.17;;
4214;SDS011;2121;48.062;7.850;2022-10-19T14:37:48;15.13;;;11.50;;
4214;SDS011;2121;48.062;7.850;2022-10-19T14:42:51;18.20;;;12.80;;
4214;SDS011;2121;48.062;7.850;2022-10-19T14:45:18;17.97;;;13.70;;
4214;SDS011;2121;48.062;7.850;2022-10-19T14:47:54;16.67;;;11.80;;
4214;SDS011;2121;48.062;7.850;2022-10-19T14:50:25;16.87;;;12.97;;
4214;SDS011;2121;48.062;7.850;2022-10-19T14:53:02;20.23;;;12.57;;
4214;SDS011;2121;48.062;7.850;2022-10-19T14:56:17;17.67;;;12.47;;
4214;SDS011;2121;48.062;7.850;2022-10-19T14:59:24;23.20;;;14.83;;
4214;SDS011;2121;48.062;7.850;2022-10-19T15:02:02;18.67;;;14.77;;
4214;SDS011;2121;48.062;7.850;2022-10-19T15:04:53;19.43;;;14.07;;
4214;SDS011;2121;48.062;7.850;2022-10-19T15:07:38;22.73;;;15.80;;
4214;SDS011;2121;48.062;7.850;2022-10-19T15:10:08;26.40;;;15.03;;
4214;SDS011;2121;48.062;7.850;2022-10-19T15:12:48;22.70;;;15.00;;
4214;SDS011;2121;48.062;7.850;2022-10-19T15:15:25;21.57;;;15.30;;
4214;SDS011;2121;48.062;7.850;2022-10-19T15:20:32;26.70;;;16.97;;
4214;SDS011;2121;48.062;7.850;2022-10-19T15:26:00;23.00;;;15.70;;
4214;SDS011;2121;48.062;7.850;2022-10-19T15:28:43;32.80;;;16.00;;
4214;SDS011;2121;48.062;7.850;2022-10-19T15:33:45;26.63;;;16.00;;
4214;SDS011;2121;48.062;7.850;2022-10-19T15:36:17;25.27;;;17.10;;
4214;SDS011;2121;48.062;7.850;2022-10-19T15:38:48;20.80;;;14.90;;
4214;SDS011;2121;48.062;7.850;2022-10-19T15:41:32;24.27;;;17.47;;
4214;SDS011;2121;48.062;7.850;2022-10-19T15:44:01;20.57;;;15.03;;
4214;SDS011;2121;48.062;7.850;2022-10-19T15:48:59;21.40;;;14.83;;
4214;SDS011;2121;48.062;7.850;2022-10-19T15:54:00;26.10;;;15.33;;
4214;SDS011;2121;48.062;7.850;2022-10-19T15:56:32;25.75;;;17.40;;
4214;SDS011;2121;48.062;7.850;2022-10-19T15:59:03;26.40;;;18.93;;
4214;SDS011;2121;48.062;7.850;2022-10-19T16:01:55;26.60;;;15.87;;
4214;SDS011;2121;48.062;7.850;2022-10-19T16:04:21;25.27;;;16.17;;
4214;SDS011;2121;48.062;7.850;2022-10-19T16:06:47;21.27;;;15.60;;
4214;SDS011;2121;48.062;7.850;2022-10-19T16:09:15;21.43;;;15.40;;
4214;SDS011;2121;48.062;7.850;2022-10-19T16:11:44;20.93;;;16.03;;
4214;SDS011;2121;48.062;7.850;2022-10-19T16:14:11;23.57;;;15.60;;
4214;SDS011;2121;48.062;7.850;2022-10-19T16:16:37;22.17;;;16.00;;
4214;SDS011;2121;48.062;7.850;2022-10-19T16:19:04;27.70;;;17.90;;
4214;SDS011;2121;48.062;7.850;2022-10-19T16:21:31;24.03;;;16.27;;
4214;SDS011;2121;48.062;7.850;2022-10-19T16:24:01;27.67;;;16.17;;
4214;SDS011;2121;48.062;7.850;2022-10-19T16:26:27;23.27;;;17.17;;
4214;SDS011;2121;48.062;7.850;2022-10-19T16:28:56;23.37;;;16.57;;
4214;SDS011;2121;48.062;7.850;2022-10-19T16:31:23;21.80;;;16.00;;
4214;SDS011;2121;48.062;7.850;2022-10-19T16:33:49;22.77;;;14.63;;
4214;SDS011;2121;48.062;7.850;2022-10-19T16:36:15;24.93;;;16.97;;
4214;SDS011;2121;48.062;7.850;2022-10-19T16:38:44;22.60;;;14.80;;
4214;SDS011;2121;48.062;7.850;2022-10-19T16:41:10;19.93;;;14.20;;
4214;SDS011;2121;48.062;7.850;2022-10-19T16:43:36;16.70;;;14.53;;
4214;SDS011;2121;48.062;7.850;2022-10-19T16:46:03;22.53;;;14.30;;
4214;SDS011;2121;48.062;7.850;2022-10-19T16:48:29;31.73;;;14.17;;
4214;SDS011;2121;48.062;7.850;2022-10-19T16:53:30;20.90;;;14.93;;
4214;SDS011;2121;48.062;7.850;2022-10-19T16:56:04;17.90;;;13.20;;
4214;SDS011;2121;48.062;7.850;2022-10-19T16:58:34;21.30;;;12.83;;
4214;SDS011;2121;48.062;7.850;2022-10-19T17:01:15;17.00;;;12.30;;
4214;SDS011;2121;48.062;7.850;2022-10-19T17:03:43;17.77;;;12.27;;
4214;SDS011;2121;48.062;7.850;2022-10-19T17:06:10;15.43;;;11.00;;
4214;SDS011;2121;48.062;7.850;2022-10-19T17:08:37;38.60;;;24.43;;
4214;SDS011;2121;48.062;7.850;2022-10-19T17:11:10;69.53;;;40.43;;
4214;SDS011;2121;48.062;7.850;2022-10-19T17:14:03;18.73;;;15.40;;
4214;SDS011;2121;48.062;7.850;2022-10-19T17:16:32;16.70;;;11.40;;
4214;SDS011;2121;48.062;7.850;2022-10-19T17:19:00;20.80;;;11.30;;
4214;SDS011;2121;48.062;7.850;2022-10-19T17:21:30;18.87;;;12.43;;
4214;SDS011;2121;48.062;7.850;2022-10-19T17:24:00;16.60;;;12.07;;
4214;SDS011;2121;48.062;7.850;2022-10-19T17:26:30;15.70;;;10.77;;
4214;SDS011;2121;48.062;7.850;2022-10-19T17:29:02;16.90;;;12.23;;
4214;SDS011;2121;48.062;7.850;2022-10-19T17:31:30;14.70;;;10.97;;
4214;SDS011;2121;48.062;7.850;2022-10-19T17:33:56;15.37;;;12.40;;
4214;SDS011;2121;48.062;7.850;2022-10-19T17:36:25;17.90;;;12.40;;
4214;SDS011;2121;48.062;7.850;2022-10-19T17:38:53;17.73;;;11.33;;
4214;SDS011;2121;48.062;7.850;2022-10-19T17:41:21;19.90;;;12.33;;
4214;SDS011;2121;48.062;7.850;2022-10-19T17:43:48;24.00;;;11.93;;
4214;SDS011;2121;48.062;7.850;2022-10-19T17:46:16;15.87;;;11.73;;
4214;SDS011;2121;48.062;7.850;2022-10-19T17:48:44;18.23;;;12.37;;
4214;SDS011;2121;48.062;7.850;2022-10-19T17:51:30;16.90;;;13.10;;
4214;SDS011;2121;48.062;7.850;2022-10-19T17:53:59;14.93;;;10.00;;
4214;SDS011;2121;48.062;7.850;2022-10-19T17:56:30;29.47;;;12.10;;
4214;SDS011;2121;48.062;7.850;2022-10-19T17:58:56;17.50;;;11.57;;
4214;SDS011;2121;48.062;7.850;2022-10-19T18:01:22;15.93;;;11.07;;
4214;SDS011;2121;48.062;7.850;2022-10-19T18:03:49;18.50;;;10.10;;
4214;SDS011;2121;48.062;7.850;2022-10-19T18:08:45;13.17;;;11.77;;
4214;SDS011;2121;48.062;7.850;2022-10-19T18:11:14;17.67;;;12.30;;
4214;SDS011;2121;48.062;7.850;2022-10-19T18:13:46;17.33;;;11.37;;
4214;SDS011;2121;48.062;7.850;2022-10-19T18:18:47;20.60;;;13.27;;
4214;SDS011;2121;48.062;7.850;2022-10-19T18:21:17;25.50;;;12.50;;
4214;SDS011;2121;48.062;7.850;2022-10-19T18:23:46;13.70;;;10.70;;
4214;SDS011;2121;48.062;7.850;2022-10-19T18:26:17;17.90;;;12.20;;
4214;SDS011;2121;48.062;7.850;2022-10-19T18:28:50;16.97;;;12.80;;